sensor_id;sensor_type;location;lat;lon;timestamp;P1;durP1;ratioP1;P2;durP2;ratioP2
68475;SDS011;55464;48.266;14.188;2023-07-09T00:00:31;8.68;;;4.82;;
68475;SDS011;55464;48.266;14.188;2023-07-09T00:02:57;5.25;;;4.18;;
68475;SDS011;55464;48.266;14.188;2023-07-09T00:05:23;5.22;;;4.10;;
68475;SDS011;55464;48.266;14.188;2023-07-09T00:07:49;5.07;;;3.50;;
68475;SDS011;55464;48.266;14.188;2023-07-09T00:10:18;5.72;;;4.07;;
68475;SDS011;55464;48.266;14.188;2023-07-09T00:12:45;6.05;;;4.20;;
68475;SDS011;55464;48.266;14.188;2023-07-09T00:15:12;5.38;;;3.72;;
68475;SDS011;55464;48.266;14.188;2023-07-09T00:17:41;6.50;;;4.63;;
68475;SDS011;55464;48.266;14.188;2023-07-09T00:20:09;6.72;;;4.10;;
68475;SDS011;55464;48.266;14.188;2023-07-09T00:22:39;7.50;;;4.47;;
68475;SDS011;55464;48.266;14.188;2023-07-09T00:25:07;4.65;;;3.90;;
68475;SDS011;55464;48.266;14.188;2023-07-09T00:27:38;5.70;;;3.85;;
68475;SDS011;55464;48.266;14.188;2023-07-09T00:30:07;5.00;;;3.70;;
68475;SDS011;55464;48.266;14.188;2023-07-09T00:32:40;5.63;;;4.38;;
68475;SDS011;55464;48.266;14.188;2023-07-09T00:35:08;6.35;;;3.95;;
68475;SDS011;55464;48.266;14.188;2023-07-09T00:37:40;5.25;;;3.65;;
68475;SDS011;55464;48.266;14.188;2023-07-09T00:40:10;5.40;;;4.53;;
68475;SDS011;55464;48.266;14.188;2023-07-09T00:42:45;6.60;;;4.18;;
68475;SDS011;55464;48.266;14.188;2023-07-09T00:46:07;6.55;;;3.78;;
68475;SDS011;55464;48.266;14.188;2023-07-09T00:48:04;7.25;;;4.18;;
68475;SDS011;55464;48.266;14.188;2023-07-09T00:55:55;7.25;;;3.97;;
68475;SDS011;55464;48.266;14.188;2023-07-09T00:58:25;7.55;;;4.13;;
68475;SDS011;55464;48.266;14.188;2023-07-09T01:00:54;5.85;;;3.67;;
68475;SDS011;55464;48.266;14.188;2023-07-09T01:03:36;5.90;;;4.13;;
68475;SDS011;55464;48.266;14.188;2023-07-09T01:06:07;8.40;;;4.45;;
68475;SDS011;55464;48.266;14.188;2023-07-09T01:08:34;6.72;;;4.10;;
68475;SDS011;55464;48.266;14.188;2023-07-09T01:11:01;8.88;;;3.92;;
68475;SDS011;55464;48.266;14.188;2023-07-09T01:13:27;4.85;;;3.85;;
68475;SDS011;55464;48.266;14.188;2023-07-09T01:15:54;6.25;;;4.40;;
68475;SDS011;55464;48.266;14.188;2023-07-09T01:18:21;5.72;;;3.80;;
68475;SDS011;55464;48.266;14.188;2023-07-09T01:20:48;4.85;;;3.97;;
68475;SDS011;55464;48.266;14.188;2023-07-09T01:23:13;5.72;;;4.55;;
68475;SDS011;55464;48.266;14.188;2023-07-09T01:25:44;5.15;;;4.22;;
68475;SDS011;55464;48.266;14.188;2023-07-09T01:28:17;14.45;;;5.25;;
68475;SDS011;55464;48.266;14.188;2023-07-09T01:30:43;6.25;;;4.72;;
68475;SDS011;55464;48.266;14.188;2023-07-09T01:33:09;7.90;;;4.68;;
68475;SDS011;55464;48.266;14.188;2023-07-09T01:35:35;7.13;;;4.88;;
68475;SDS011;55464;48.266;14.188;2023-07-09T01:38:02;7.40;;;4.43;;
68475;SDS011;55464;48.266;14.188;2023-07-09T01:40:31;5.82;;;4.50;;
68475;SDS011;55464;48.266;14.188;2023-07-09T01:42:57;8.40;;;5.00;;
68475;SDS011;55464;48.266;14.188;2023-07-09T01:45:24;6.25;;;4.68;;
68475;SDS011;55464;48.266;14.188;2023-07-09T01:47:49;7.18;;;4.55;;
68475;SDS011;55464;48.266;14.188;2023-07-09T01:50:15;6.10;;;4.68;;
68475;SDS011;55464;48.266;14.188;2023-07-09T01:52:41;8.73;;;4.93;;
68475;SDS011;55464;48.266;14.188;2023-07-09T01:55:10;7.15;;;4.45;;
68475;SDS011;55464;48.266;14.188;2023-07-09T01:57:37;8.25;;;5.20;;
68475;SDS011;55464;48.266;14.188;2023-07-09T02:00:07;7.32;;;4.63;;
68475;SDS011;55464;48.266;14.188;2023-07-09T02:02:38;8.55;;;5.13;;
68475;SDS011;55464;48.266;14.188;2023-07-09T02:05:04;9.85;;;5.75;;
68475;SDS011;55464;48.266;14.188;2023-07-09T02:07:30;6.15;;;5.15;;
68475;SDS011;55464;48.266;14.188;2023-07-09T02:09:56;10.27;;;5.15;;
68475;SDS011;55464;48.266;14.188;2023-07-09T02:12:23;9.32;;;5.25;;
68475;SDS011;55464;48.266;14.188;2023-07-09T02:14:49;6.80;;;4.97;;
68475;SDS011;55464;48.266;14.188;2023-07-09T02:17:15;7.25;;;5.03;;
68475;SDS011;55464;48.266;14.188;2023-07-09T02:19:42;11.88;;;6.05;;
68475;SDS011;55464;48.266;14.188;2023-07-09T02:22:08;8.50;;;5.00;;
68475;SDS011;55464;48.266;14.188;2023-07-09T02:24:34;9.82;;;4.90;;
68475;SDS011;55464;48.266;14.188;2023-07-09T02:27:00;8.70;;;5.38;;
68475;SDS011;55464;48.266;14.188;2023-07-09T02:29:27;8.93;;;5.03;;
68475;SDS011;55464;48.266;14.188;2023-07-09T02:31:54;6.32;;;4.82;;
68475;SDS011;55464;48.266;14.188;2023-07-09T02:34:21;6.97;;;5.30;;
68475;SDS011;55464;48.266;14.188;2023-07-09T02:36:50;8.88;;;5.30;;
68475;SDS011;55464;48.266;14.188;2023-07-09T02:39:17;7.10;;;4.65;;
68475;SDS011;55464;48.266;14.188;2023-07-09T02:41:42;12.20;;;5.22;;
68475;SDS011;55464;48.266;14.188;2023-07-09T02:44:08;6.22;;;5.13;;
68475;SDS011;55464;48.266;14.188;2023-07-09T02:46:34;7.15;;;4.85;;
68475;SDS011;55464;48.266;14.188;2023-07-09T02:49:00;7.78;;;4.90;;
68475;SDS011;55464;48.266;14.188;2023-07-09T02:51:27;8.93;;;5.43;;
68475;SDS011;55464;48.266;14.188;2023-07-09T02:53:53;7.53;;;5.13;;
68475;SDS011;55464;48.266;14.188;2023-07-09T02:56:19;8.45;;;4.93;;
68475;SDS011;55464;48.266;14.188;2023-07-09T02:58:45;6.80;;;4.82;;
68475;SDS011;55464;48.266;14.188;2023-07-09T03:01:10;10.63;;;5.13;;
68475;SDS011;55464;48.266;14.188;2023-07-09T03:03:37;8.52;;;5.53;;
68475;SDS011;55464;48.266;14.188;2023-07-09T03:06:03;7.35;;;5.63;;
68475;SDS011;55464;48.266;14.188;2023-07-09T03:08:28;9.20;;;5.30;;
68475;SDS011;55464;48.266;14.188;2023-07-09T03:10:54;8.45;;;5.22;;
68475;SDS011;55464;48.266;14.188;2023-07-09T03:13:19;7.45;;;5.38;;
68475;SDS011;55464;48.266;14.188;2023-07-09T03:15:53;6.50;;;5.25;;
68475;SDS011;55464;48.266;14.188;2023-07-09T03:18:22;12.10;;;5.63;;
68475;SDS011;55464;48.266;14.188;2023-07-09T03:20:48;8.45;;;5.72;;
68475;SDS011;55464;48.266;14.188;2023-07-09T03:23:13;13.77;;;6.70;;
68475;SDS011;55464;48.266;14.188;2023-07-09T03:25:42;8.80;;;5.63;;
68475;SDS011;55464;48.266;14.188;2023-07-09T03:28:09;7.13;;;5.43;;
68475;SDS011;55464;48.266;14.188;2023-07-09T03:30:43;7.97;;;5.32;;
68475;SDS011;55464;48.266;14.188;2023-07-09T03:33:10;8.15;;;5.40;;
68475;SDS011;55464;48.266;14.188;2023-07-09T03:35:37;8.18;;;5.80;;
68475;SDS011;55464;48.266;14.188;2023-07-09T03:38:03;7.78;;;5.50;;
68475;SDS011;55464;48.266;14.188;2023-07-09T03:40:30;9.25;;;5.45;;
68475;SDS011;55464;48.266;14.188;2023-07-09T03:42:55;7.15;;;4.97;;
68475;SDS011;55464;48.266;14.188;2023-07-09T03:45:20;8.93;;;5.65;;
68475;SDS011;55464;48.266;14.188;2023-07-09T03:47:46;6.10;;;4.85;;
68475;SDS011;55464;48.266;14.188;2023-07-09T03:50:11;8.13;;;5.00;;
68475;SDS011;55464;48.266;14.188;2023-07-09T03:52:37;8.63;;;5.00;;
68475;SDS011;55464;48.266;14.188;2023-07-09T03:55:02;7.38;;;5.22;;
68475;SDS011;55464;48.266;14.188;2023-07-09T03:57:31;6.73;;;5.17;;
68475;SDS011;55464;48.266;14.188;2023-07-09T03:59:57;7.95;;;4.88;;
68475;SDS011;55464;48.266;14.188;2023-07-09T04:02:22;8.98;;;4.78;;
68475;SDS011;55464;48.266;14.188;2023-07-09T04:04:48;7.65;;;4.97;;
68475;SDS011;55464;48.266;14.188;2023-07-09T04:07:14;7.57;;;4.80;;
68475;SDS011;55464;48.266;14.188;2023-07-09T04:09:40;6.47;;;4.63;;
68475;SDS011;55464;48.266;14.188;2023-07-09T04:12:06;6.60;;;5.07;;
68475;SDS011;55464;48.266;14.188;2023-07-09T04:14:31;7.38;;;4.90;;
68475;SDS011;55464;48.266;14.188;2023-07-09T04:16:57;7.50;;;5.50;;
68475;SDS011;55464;48.266;14.188;2023-07-09T04:19:23;10.52;;;4.88;;
68475;SDS011;55464;48.266;14.188;2023-07-09T04:21:49;7.20;;;5.25;;
68475;SDS011;55464;48.266;14.188;2023-07-09T04:24:16;7.97;;;5.45;;
68475;SDS011;55464;48.266;14.188;2023-07-09T04:26:42;8.05;;;5.10;;
68475;SDS011;55464;48.266;14.188;2023-07-09T04:29:08;9.23;;;5.68;;
68475;SDS011;55464;48.266;14.188;2023-07-09T04:31:34;8.55;;;5.70;;
68475;SDS011;55464;48.266;14.188;2023-07-09T04:33:59;6.93;;;4.78;;
68475;SDS011;55464;48.266;14.188;2023-07-09T04:36:25;8.82;;;5.45;;
68475;SDS011;55464;48.266;14.188;2023-07-09T04:38:51;7.63;;;5.50;;
68475;SDS011;55464;48.266;14.188;2023-07-09T04:41:16;9.38;;;5.47;;
68475;SDS011;55464;48.266;14.188;2023-07-09T04:43:42;8.15;;;5.15;;
68475;SDS011;55464;48.266;14.188;2023-07-09T04:46:07;10.18;;;5.20;;
68475;SDS011;55464;48.266;14.188;2023-07-09T04:48:33;10.20;;;5.55;;
68475;SDS011;55464;48.266;14.188;2023-07-09T04:50:58;7.68;;;5.90;;
68475;SDS011;55464;48.266;14.188;2023-07-09T04:53:24;7.32;;;5.40;;
68475;SDS011;55464;48.266;14.188;2023-07-09T04:55:50;7.88;;;5.15;;
68475;SDS011;55464;48.266;14.188;2023-07-09T04:58:16;7.18;;;5.20;;
68475;SDS011;55464;48.266;14.188;2023-07-09T05:00:43;9.50;;;6.03;;
68475;SDS011;55464;48.266;14.188;2023-07-09T05:03:08;9.77;;;6.22;;
68475;SDS011;55464;48.266;14.188;2023-07-09T05:05:34;7.30;;;5.53;;
68475;SDS011;55464;48.266;14.188;2023-07-09T05:07:59;7.78;;;5.57;;
68475;SDS011;55464;48.266;14.188;2023-07-09T05:10:25;9.85;;;5.45;;
68475;SDS011;55464;48.266;14.188;2023-07-09T05:12:52;10.82;;;6.25;;
68475;SDS011;55464;48.266;14.188;2023-07-09T05:15:20;7.07;;;5.38;;
68475;SDS011;55464;48.266;14.188;2023-07-09T05:17:46;8.57;;;5.63;;
68475;SDS011;55464;48.266;14.188;2023-07-09T05:20:12;8.13;;;5.32;;
68475;SDS011;55464;48.266;14.188;2023-07-09T05:22:38;9.32;;;6.13;;
68475;SDS011;55464;48.266;14.188;2023-07-09T05:25:04;8.50;;;5.22;;
68475;SDS011;55464;48.266;14.188;2023-07-09T05:27:29;8.32;;;5.22;;
68475;SDS011;55464;48.266;14.188;2023-07-09T05:29:55;7.18;;;5.43;;
68475;SDS011;55464;48.266;14.188;2023-07-09T05:32:20;8.02;;;5.75;;
68475;SDS011;55464;48.266;14.188;2023-07-09T05:34:46;7.32;;;5.38;;
68475;SDS011;55464;48.266;14.188;2023-07-09T05:37:11;6.82;;;5.15;;
68475;SDS011;55464;48.266;14.188;2023-07-09T05:39:36;6.45;;;5.25;;
68475;SDS011;55464;48.266;14.188;2023-07-09T05:42:02;7.10;;;5.53;;
68475;SDS011;55464;48.266;14.188;2023-07-09T05:44:27;9.63;;;5.43;;
68475;SDS011;55464;48.266;14.188;2023-07-09T05:46:53;6.88;;;5.50;;
68475;SDS011;55464;48.266;14.188;2023-07-09T05:49:18;11.68;;;6.35;;
68475;SDS011;55464;48.266;14.188;2023-07-09T05:51:43;6.75;;;5.05;;
68475;SDS011;55464;48.266;14.188;2023-07-09T05:54:09;9.57;;;5.75;;
68475;SDS011;55464;48.266;14.188;2023-07-09T05:56:34;7.53;;;4.85;;
68475;SDS011;55464;48.266;14.188;2023-07-09T05:59:00;6.60;;;5.20;;
68475;SDS011;55464;48.266;14.188;2023-07-09T06:01:25;6.65;;;5.05;;
68475;SDS011;55464;48.266;14.188;2023-07-09T06:03:52;9.25;;;5.18;;
68475;SDS011;55464;48.266;14.188;2023-07-09T06:06:18;7.80;;;5.60;;
68475;SDS011;55464;48.266;14.188;2023-07-09T06:08:43;7.80;;;5.32;;
68475;SDS011;55464;48.266;14.188;2023-07-09T06:11:09;9.18;;;5.95;;
68475;SDS011;55464;48.266;14.188;2023-07-09T06:13:35;10.68;;;5.30;;
68475;SDS011;55464;48.266;14.188;2023-07-09T06:16:00;8.15;;;5.30;;
68475;SDS011;55464;48.266;14.188;2023-07-09T06:18:26;8.57;;;5.28;;
68475;SDS011;55464;48.266;14.188;2023-07-09T06:20:55;9.73;;;5.72;;
68475;SDS011;55464;48.266;14.188;2023-07-09T06:23:25;9.00;;;6.18;;
68475;SDS011;55464;48.266;14.188;2023-07-09T06:25:50;7.15;;;5.97;;
68475;SDS011;55464;48.266;14.188;2023-07-09T06:28:17;10.48;;;5.80;;
68475;SDS011;55464;48.266;14.188;2023-07-09T06:30:44;7.20;;;5.40;;
68475;SDS011;55464;48.266;14.188;2023-07-09T06:33:10;10.90;;;6.55;;
68475;SDS011;55464;48.266;14.188;2023-07-09T06:35:37;9.38;;;5.90;;
68475;SDS011;55464;48.266;14.188;2023-07-09T06:38:04;14.32;;;5.88;;
68475;SDS011;55464;48.266;14.188;2023-07-09T06:40:30;11.82;;;6.45;;
68475;SDS011;55464;48.266;14.188;2023-07-09T06:42:56;8.88;;;5.63;;
68475;SDS011;55464;48.266;14.188;2023-07-09T06:45:22;9.90;;;6.20;;
68475;SDS011;55464;48.266;14.188;2023-07-09T06:47:48;11.40;;;6.47;;
68475;SDS011;55464;48.266;14.188;2023-07-09T06:50:14;12.63;;;6.78;;
68475;SDS011;55464;48.266;14.188;2023-07-09T06:52:40;13.95;;;6.38;;
68475;SDS011;55464;48.266;14.188;2023-07-09T06:55:06;9.07;;;6.13;;
68475;SDS011;55464;48.266;14.188;2023-07-09T06:57:31;13.38;;;7.18;;
68475;SDS011;55464;48.266;14.188;2023-07-09T06:59:57;11.88;;;7.32;;
68475;SDS011;55464;48.266;14.188;2023-07-09T07:02:22;10.63;;;6.28;;
68475;SDS011;55464;48.266;14.188;2023-07-09T07:04:47;12.23;;;7.03;;
68475;SDS011;55464;48.266;14.188;2023-07-09T07:07:13;12.82;;;6.40;;
68475;SDS011;55464;48.266;14.188;2023-07-09T07:09:38;18.65;;;7.65;;
68475;SDS011;55464;48.266;14.188;2023-07-09T07:12:04;10.93;;;6.93;;
68475;SDS011;55464;48.266;14.188;2023-07-09T07:14:30;10.50;;;6.93;;
68475;SDS011;55464;48.266;14.188;2023-07-09T07:16:56;11.13;;;6.10;;
68475;SDS011;55464;48.266;14.188;2023-07-09T07:19:22;11.60;;;6.18;;
68475;SDS011;55464;48.266;14.188;2023-07-09T07:21:48;12.65;;;5.90;;
68475;SDS011;55464;48.266;14.188;2023-07-09T07:24:13;10.93;;;6.55;;
68475;SDS011;55464;48.266;14.188;2023-07-09T07:26:39;11.25;;;6.72;;
68475;SDS011;55464;48.266;14.188;2023-07-09T07:29:04;11.55;;;6.60;;
68475;SDS011;55464;48.266;14.188;2023-07-09T07:31:29;12.23;;;6.50;;
68475;SDS011;55464;48.266;14.188;2023-07-09T07:33:55;19.70;;;7.68;;
68475;SDS011;55464;48.266;14.188;2023-07-09T07:36:20;13.18;;;6.40;;
68475;SDS011;55464;48.266;14.188;2023-07-09T07:38:46;12.45;;;7.05;;
68475;SDS011;55464;48.266;14.188;2023-07-09T07:41:11;11.50;;;6.65;;
68475;SDS011;55464;48.266;14.188;2023-07-09T07:43:37;10.32;;;5.80;;
68475;SDS011;55464;48.266;14.188;2023-07-09T07:46:02;8.68;;;5.90;;
68475;SDS011;55464;48.266;14.188;2023-07-09T07:48:28;9.20;;;5.78;;
68475;SDS011;55464;48.266;14.188;2023-07-09T07:51:00;13.95;;;6.07;;
68475;SDS011;55464;48.266;14.188;2023-07-09T07:53:27;9.00;;;5.57;;
68475;SDS011;55464;48.266;14.188;2023-07-09T07:55:54;11.63;;;5.93;;
68475;SDS011;55464;48.266;14.188;2023-07-09T07:58:21;9.82;;;5.57;;
68475;SDS011;55464;48.266;14.188;2023-07-09T08:00:47;8.35;;;5.30;;
68475;SDS011;55464;48.266;14.188;2023-07-09T08:03:12;8.98;;;6.10;;
68475;SDS011;55464;48.266;14.188;2023-07-09T08:05:38;10.75;;;6.63;;
68475;SDS011;55464;48.266;14.188;2023-07-09T08:08:03;10.40;;;6.35;;
68475;SDS011;55464;48.266;14.188;2023-07-09T08:10:29;8.05;;;5.45;;
68475;SDS011;55464;48.266;14.188;2023-07-09T08:12:54;11.07;;;6.25;;
68475;SDS011;55464;48.266;14.188;2023-07-09T08:15:22;8.93;;;6.20;;
68475;SDS011;55464;48.266;14.188;2023-07-09T08:17:48;9.50;;;5.80;;
68475;SDS011;55464;48.266;14.188;2023-07-09T08:20:13;11.30;;;6.65;;
68475;SDS011;55464;48.266;14.188;2023-07-09T08:22:39;12.80;;;5.90;;
68475;SDS011;55464;48.266;14.188;2023-07-09T08:25:04;10.00;;;6.25;;
68475;SDS011;55464;48.266;14.188;2023-07-09T08:27:30;7.63;;;5.53;;
68475;SDS011;55464;48.266;14.188;2023-07-09T08:29:55;8.85;;;5.85;;
68475;SDS011;55464;48.266;14.188;2023-07-09T08:32:21;11.23;;;6.38;;
68475;SDS011;55464;48.266;14.188;2023-07-09T08:34:46;7.53;;;5.60;;
68475;SDS011;55464;48.266;14.188;2023-07-09T08:37:12;10.75;;;6.25;;
68475;SDS011;55464;48.266;14.188;2023-07-09T08:39:37;9.25;;;6.03;;
68475;SDS011;55464;48.266;14.188;2023-07-09T08:42:10;10.98;;;6.15;;
68475;SDS011;55464;48.266;14.188;2023-07-09T08:52:15;12.45;;;5.35;;
68475;SDS011;55464;48.266;14.188;2023-07-09T08:54:52;8.73;;;6.00;;
68475;SDS011;55464;48.266;14.188;2023-07-09T08:57:37;9.32;;;4.80;;
68475;SDS011;55464;48.266;14.188;2023-07-09T09:00:15;8.75;;;5.68;;
68475;SDS011;55464;48.266;14.188;2023-07-09T09:05:39;8.40;;;5.38;;
68475;SDS011;55464;48.266;14.188;2023-07-09T09:08:12;7.50;;;5.10;;
68475;SDS011;55464;48.266;14.188;2023-07-09T09:14:25;13.13;;;5.53;;
68475;SDS011;55464;48.266;14.188;2023-07-09T09:16:52;6.47;;;5.00;;
68475;SDS011;55464;48.266;14.188;2023-07-09T09:21:51;6.03;;;4.68;;
68475;SDS011;55464;48.266;14.188;2023-07-09T09:24:34;7.82;;;5.22;;
68475;SDS011;55464;48.266;14.188;2023-07-09T09:27:01;10.93;;;4.87;;
68475;SDS011;55464;48.266;14.188;2023-07-09T09:29:27;5.88;;;4.47;;
68475;SDS011;55464;48.266;14.188;2023-07-09T09:31:54;6.68;;;5.30;;
68475;SDS011;55464;48.266;14.188;2023-07-09T09:34:25;9.00;;;5.20;;
68475;SDS011;55464;48.266;14.188;2023-07-09T09:36:53;8.43;;;4.80;;
68475;SDS011;55464;48.266;14.188;2023-07-09T09:39:19;7.97;;;5.00;;
68475;SDS011;55464;48.266;14.188;2023-07-09T09:41:45;8.65;;;4.40;;
68475;SDS011;55464;48.266;14.188;2023-07-09T09:44:18;6.93;;;4.50;;
68475;SDS011;55464;48.266;14.188;2023-07-09T09:46:45;7.72;;;4.75;;
68475;SDS011;55464;48.266;14.188;2023-07-09T09:49:12;10.68;;;4.60;;
68475;SDS011;55464;48.266;14.188;2023-07-09T09:51:39;7.82;;;4.78;;
68475;SDS011;55464;48.266;14.188;2023-07-09T09:54:11;8.60;;;4.65;;
68475;SDS011;55464;48.266;14.188;2023-07-09T09:56:42;7.20;;;4.78;;
68475;SDS011;55464;48.266;14.188;2023-07-09T09:59:27;6.95;;;4.82;;
68475;SDS011;55464;48.266;14.188;2023-07-09T10:02:02;7.85;;;4.57;;
68475;SDS011;55464;48.266;14.188;2023-07-09T10:04:38;9.02;;;4.70;;
68475;SDS011;55464;48.266;14.188;2023-07-09T10:07:05;6.78;;;4.60;;
68475;SDS011;55464;48.266;14.188;2023-07-09T10:19:58;7.40;;;4.68;;
68475;SDS011;55464;48.266;14.188;2023-07-09T10:22:38;5.97;;;3.97;;
68475;SDS011;55464;48.266;14.188;2023-07-09T10:25:13;5.38;;;3.58;;
68475;SDS011;55464;48.266;14.188;2023-07-09T10:33:14;7.95;;;4.20;;
68475;SDS011;55464;48.266;14.188;2023-07-09T10:36:02;7.07;;;4.20;;
68475;SDS011;55464;48.266;14.188;2023-07-09T10:41:18;7.18;;;4.15;;
68475;SDS011;55464;48.266;14.188;2023-07-09T10:43:50;7.13;;;3.97;;
68475;SDS011;55464;48.266;14.188;2023-07-09T10:46:26;5.13;;;3.95;;
68475;SDS011;55464;48.266;14.188;2023-07-09T10:48:56;7.10;;;3.92;;
68475;SDS011;55464;48.266;14.188;2023-07-09T10:51:28;5.13;;;4.15;;
68475;SDS011;55464;48.266;14.188;2023-07-09T10:56:29;9.13;;;4.23;;
68475;SDS011;55464;48.266;14.188;2023-07-09T10:59:03;9.18;;;4.60;;
68475;SDS011;55464;48.266;14.188;2023-07-09T11:01:49;9.30;;;3.90;;
68475;SDS011;55464;48.266;14.188;2023-07-09T11:04:42;7.38;;;3.75;;
68475;SDS011;55464;48.266;14.188;2023-07-09T11:07:15;6.07;;;4.28;;
68475;SDS011;55464;48.266;14.188;2023-07-09T11:09:46;5.00;;;3.70;;
68475;SDS011;55464;48.266;14.188;2023-07-09T11:12:19;4.47;;;3.35;;
68475;SDS011;55464;48.266;14.188;2023-07-09T11:14:49;5.22;;;3.80;;
68475;SDS011;55464;48.266;14.188;2023-07-09T11:17:19;6.30;;;4.05;;
68475;SDS011;55464;48.266;14.188;2023-07-09T11:19:47;4.97;;;3.72;;
68475;SDS011;55464;48.266;14.188;2023-07-09T11:22:22;3.85;;;3.42;;
68475;SDS011;55464;48.266;14.188;2023-07-09T11:25:03;6.10;;;3.38;;
68475;SDS011;55464;48.266;14.188;2023-07-09T11:30:16;5.95;;;4.00;;
68475;SDS011;55464;48.266;14.188;2023-07-09T11:32:46;5.53;;;3.35;;
68475;SDS011;55464;48.266;14.188;2023-07-09T11:35:24;3.83;;;3.17;;
68475;SDS011;55464;48.266;14.188;2023-07-09T11:37:51;4.20;;;2.97;;
68475;SDS011;55464;48.266;14.188;2023-07-09T11:40:18;5.72;;;3.78;;
68475;SDS011;55464;48.266;14.188;2023-07-09T11:45:27;5.55;;;3.22;;
68475;SDS011;55464;48.266;14.188;2023-07-09T11:48:01;5.63;;;3.40;;
68475;SDS011;55464;48.266;14.188;2023-07-09T11:50:52;5.45;;;3.25;;
68475;SDS011;55464;48.266;14.188;2023-07-09T11:56:07;4.60;;;3.40;;
68475;SDS011;55464;48.266;14.188;2023-07-09T11:58:33;6.93;;;3.33;;
68475;SDS011;55464;48.266;14.188;2023-07-09T12:00:59;6.20;;;3.67;;
68475;SDS011;55464;48.266;14.188;2023-07-09T12:03:27;4.38;;;3.47;;
68475;SDS011;55464;48.266;14.188;2023-07-09T12:08:32;6.95;;;3.72;;
68475;SDS011;55464;48.266;14.188;2023-07-09T12:10:59;3.63;;;3.10;;
68475;SDS011;55464;48.266;14.188;2023-07-09T12:13:25;7.30;;;3.38;;
68475;SDS011;55464;48.266;14.188;2023-07-09T12:15:50;6.30;;;3.90;;
68475;SDS011;55464;48.266;14.188;2023-07-09T12:18:16;5.80;;;3.53;;
68475;SDS011;55464;48.266;14.188;2023-07-09T12:20:44;4.18;;;3.70;;
68475;SDS011;55464;48.266;14.188;2023-07-09T12:25:46;4.88;;;3.28;;
68475;SDS011;55464;48.266;14.188;2023-07-09T12:28:13;4.70;;;3.22;;
68475;SDS011;55464;48.266;14.188;2023-07-09T12:30:40;8.30;;;3.72;;
68475;SDS011;55464;48.266;14.188;2023-07-09T12:33:09;5.00;;;3.80;;
68475;SDS011;55464;48.266;14.188;2023-07-09T12:35:40;5.38;;;3.45;;
68475;SDS011;55464;48.266;14.188;2023-07-09T12:38:11;5.70;;;3.50;;
68475;SDS011;55464;48.266;14.188;2023-07-09T12:40:43;7.88;;;3.35;;
68475;SDS011;55464;48.266;14.188;2023-07-09T12:43:09;5.07;;;3.47;;
68475;SDS011;55464;48.266;14.188;2023-07-09T12:45:36;4.20;;;3.20;;
68475;SDS011;55464;48.266;14.188;2023-07-09T12:48:02;4.30;;;3.05;;
68475;SDS011;55464;48.266;14.188;2023-07-09T12:50:30;6.80;;;3.60;;
68475;SDS011;55464;48.266;14.188;2023-07-09T12:53:00;4.57;;;3.28;;
68475;SDS011;55464;48.266;14.188;2023-07-09T12:55:28;5.43;;;3.33;;
68475;SDS011;55464;48.266;14.188;2023-07-09T12:57:57;3.97;;;2.97;;
68475;SDS011;55464;48.266;14.188;2023-07-09T13:00:31;9.05;;;3.58;;
68475;SDS011;55464;48.266;14.188;2023-07-09T13:02:57;5.57;;;3.67;;
68475;SDS011;55464;48.266;14.188;2023-07-09T13:05:24;7.43;;;3.40;;
68475;SDS011;55464;48.266;14.188;2023-07-09T13:08:40;3.67;;;3.15;;
68475;SDS011;55464;48.266;14.188;2023-07-09T13:10:40;4.47;;;3.38;;
68475;SDS011;55464;48.266;14.188;2023-07-09T13:13:10;5.22;;;3.17;;
68475;SDS011;55464;48.266;14.188;2023-07-09T13:15:47;6.50;;;4.13;;
68475;SDS011;55464;48.266;14.188;2023-07-09T13:18:24;5.63;;;3.10;;
68475;SDS011;55464;48.266;14.188;2023-07-09T13:20:50;5.28;;;3.22;;
68475;SDS011;55464;48.266;14.188;2023-07-09T13:23:27;7.70;;;3.50;;
68475;SDS011;55464;48.266;14.188;2023-07-09T13:25:54;5.60;;;3.63;;
68475;SDS011;55464;48.266;14.188;2023-07-09T13:28:24;5.45;;;3.28;;
68475;SDS011;55464;48.266;14.188;2023-07-09T13:31:04;4.95;;;3.55;;
68475;SDS011;55464;48.266;14.188;2023-07-09T13:33:35;3.80;;;2.88;;
68475;SDS011;55464;48.266;14.188;2023-07-09T13:36:01;4.53;;;3.33;;
68475;SDS011;55464;48.266;14.188;2023-07-09T13:38:28;5.15;;;3.42;;
68475;SDS011;55464;48.266;14.188;2023-07-09T13:40:55;5.80;;;3.22;;
68475;SDS011;55464;48.266;14.188;2023-07-09T13:43:34;4.25;;;3.40;;
68475;SDS011;55464;48.266;14.188;2023-07-09T13:46:02;11.68;;;3.72;;
68475;SDS011;55464;48.266;14.188;2023-07-09T13:48:28;4.25;;;3.22;;
68475;SDS011;55464;48.266;14.188;2023-07-09T13:50:55;5.40;;;3.05;;
68475;SDS011;55464;48.266;14.188;2023-07-09T13:53:22;4.95;;;3.58;;
68475;SDS011;55464;48.266;14.188;2023-07-09T13:55:51;7.07;;;3.40;;
68475;SDS011;55464;48.266;14.188;2023-07-09T13:58:17;6.38;;;3.90;;
68475;SDS011;55464;48.266;14.188;2023-07-09T14:00:44;4.20;;;3.47;;
68475;SDS011;55464;48.266;14.188;2023-07-09T14:05:39;4.93;;;3.13;;
68475;SDS011;55464;48.266;14.188;2023-07-09T14:08:06;7.03;;;3.33;;
68475;SDS011;55464;48.266;14.188;2023-07-09T14:10:32;3.75;;;3.10;;
68475;SDS011;55464;48.266;14.188;2023-07-09T14:12:58;4.47;;;3.10;;
68475;SDS011;55464;48.266;14.188;2023-07-09T14:15:23;5.85;;;3.30;;
68475;SDS011;55464;48.266;14.188;2023-07-09T14:17:49;3.63;;;3.10;;
68475;SDS011;55464;48.266;14.188;2023-07-09T14:20:15;6.18;;;3.78;;
68475;SDS011;55464;48.266;14.188;2023-07-09T14:22:42;4.20;;;3.35;;
68475;SDS011;55464;48.266;14.188;2023-07-09T14:25:14;5.68;;;3.65;;
68475;SDS011;55464;48.266;14.188;2023-07-09T14:27:44;4.72;;;3.70;;
68475;SDS011;55464;48.266;14.188;2023-07-09T14:30:13;4.63;;;3.28;;
68475;SDS011;55464;48.266;14.188;2023-07-09T14:32:39;6.05;;;3.10;;
68475;SDS011;55464;48.266;14.188;2023-07-09T14:37:47;5.65;;;3.28;;
68475;SDS011;55464;48.266;14.188;2023-07-09T14:40:14;6.25;;;3.20;;
68475;SDS011;55464;48.266;14.188;2023-07-09T14:42:40;4.85;;;3.38;;
68475;SDS011;55464;48.266;14.188;2023-07-09T14:47:41;4.85;;;3.67;;
68475;SDS011;55464;48.266;14.188;2023-07-09T14:50:07;6.93;;;3.58;;
68475;SDS011;55464;48.266;14.188;2023-07-09T14:52:33;5.10;;;3.05;;
68475;SDS011;55464;48.266;14.188;2023-07-09T14:54:58;4.18;;;3.05;;
68475;SDS011;55464;48.266;14.188;2023-07-09T14:57:25;4.45;;;3.17;;
68475;SDS011;55464;48.266;14.188;2023-07-09T14:59:52;3.65;;;3.22;;
68475;SDS011;55464;48.266;14.188;2023-07-09T15:05:01;6.18;;;4.15;;
68475;SDS011;55464;48.266;14.188;2023-07-09T15:07:27;5.25;;;3.58;;
68475;SDS011;55464;48.266;14.188;2023-07-09T15:09:57;4.47;;;3.30;;
68475;SDS011;55464;48.266;14.188;2023-07-09T15:12:34;5.70;;;3.75;;
68475;SDS011;55464;48.266;14.188;2023-07-09T15:15:22;3.72;;;3.20;;
68475;SDS011;55464;48.266;14.188;2023-07-09T15:17:51;6.25;;;3.65;;
68475;SDS011;55464;48.266;14.188;2023-07-09T15:20:17;5.65;;;3.85;;
68475;SDS011;55464;48.266;14.188;2023-07-09T15:22:45;4.30;;;3.28;;
68475;SDS011;55464;48.266;14.188;2023-07-09T15:25:16;3.85;;;3.38;;
68475;SDS011;55464;48.266;14.188;2023-07-09T15:27:44;3.85;;;3.10;;
68475;SDS011;55464;48.266;14.188;2023-07-09T15:30:20;4.97;;;3.40;;
68475;SDS011;55464;48.266;14.188;2023-07-09T15:32:49;5.75;;;3.38;;
68475;SDS011;55464;48.266;14.188;2023-07-09T15:35:16;6.47;;;3.22;;
68475;SDS011;55464;48.266;14.188;2023-07-09T15:37:44;3.85;;;3.45;;
68475;SDS011;55464;48.266;14.188;2023-07-09T15:40:18;4.68;;;3.00;;
68475;SDS011;55464;48.266;14.188;2023-07-09T15:42:44;5.47;;;3.47;;
68475;SDS011;55464;48.266;14.188;2023-07-09T15:45:12;5.68;;;3.28;;